createdAt,value
2018-11-11T00:00:18.429Z,100603.47
2018-11-11T00:02:47.602Z,100611.80
2018-11-11T00:05:16.547Z,100612.80
2018-11-11T00:07:45.342Z,100607.47
2018-11-11T00:10:14.152Z,100611.45
2018-11-11T00:12:43.327Z,100606.81
2018-11-11T00:15:13.882Z,100608.17
2018-11-11T00:17:44.067Z,100595.20
2018-11-11T00:20:13.410Z,100599.84
2018-11-11T00:22:42.466Z,100596.84
2018-11-11T00:25:11.385Z,100601.83
2018-11-11T00:27:40.945Z,100596.86
2018-11-11T00:30:15.824Z,100594.67
2018-11-11T00:32:44.847Z,100596.53
2018-11-11T00:35:13.746Z,100595.52
2018-11-11T00:37:43.185Z,100600.84
2018-11-11T00:40:14.121Z,100599.84
2018-11-11T00:42:43.199Z,100601.51
2018-11-11T00:45:12.765Z,100610.00
2018-11-11T00:47:41.971Z,100610.50
2018-11-11T00:50:12.003Z,100603.20
2018-11-11T00:52:41.194Z,100603.17
2018-11-11T00:55:15.913Z,100608.50
2018-11-11T00:57:45.292Z,100602.69
2018-11-11T01:00:15.952Z,100605.34
2018-11-11T01:02:45.435Z,100600.18
2018-11-11T01:05:17.715Z,100600.53
2018-11-11T01:07:46.632Z,100599.52
2018-11-11T01:10:16.716Z,100602.52
2018-11-11T01:12:46.049Z,100604.17
2018-11-11T01:15:16.063Z,100608.18
2018-11-11T01:17:44.930Z,100606.52
2018-11-11T01:20:14.939Z,100609.17
2018-11-11T01:22:44.476Z,100606.50
2018-11-11T01:25:14.363Z,100605.16
2018-11-11T01:27:43.788Z,100610.84
2018-11-11T01:30:13.020Z,100614.48
2018-11-11T01:32:41.903Z,100612.31
2018-11-11T01:35:12.973Z,100614.98
2018-11-11T01:37:42.286Z,100615.50
2018-11-11T01:40:11.440Z,100614.33
2018-11-11T01:42:40.304Z,100612.17
2018-11-11T01:45:14.751Z,100608.00
2018-11-11T01:47:44.021Z,100609.17
2018-11-11T01:50:13.482Z,100602.19
2018-11-11T01:52:42.329Z,100601.71
2018-11-11T01:55:12.002Z,100600.20
2018-11-11T01:57:41.058Z,100606.17
2018-11-11T02:00:15.040Z,100606.52
2018-11-11T02:02:44.526Z,100609.84
2018-11-11T02:05:13.766Z,100602.17
2018-11-11T02:07:43.652Z,100606.81
2018-11-11T02:10:12.942Z,100608.47
2018-11-11T02:12:43.217Z,100609.99
2018-11-11T02:15:13.505Z,100612.14
2018-11-11T02:17:42.419Z,100603.34
2018-11-11T02:20:13.889Z,100600.49
2018-11-11T02:22:43.419Z,100600.17
2018-11-11T02:25:12.344Z,100604.16
2018-11-11T02:27:41.370Z,100606.00
2018-11-11T02:30:13.929Z,100610.13
2018-11-11T02:32:43.100Z,100600.84
2018-11-11T02:35:12.210Z,100606.00
2018-11-11T02:37:41.537Z,100600.68
2018-11-11T02:40:13.297Z,100614.13
2018-11-11T02:42:42.098Z,100617.45
2018-11-11T02:45:12.704Z,100615.80
2018-11-11T02:47:41.531Z,100619.11
2018-11-11T02:50:12.125Z,100620.45
2018-11-11T02:52:42.051Z,100620.09
2018-11-11T02:55:11.542Z,100621.11
2018-11-11T02:57:40.966Z,100615.12
2018-11-11T03:00:13.466Z,100611.78
2018-11-11T03:02:43.454Z,100604.83
2018-11-11T03:05:13.572Z,100605.48
2018-11-11T03:07:42.458Z,100611.13
2018-11-11T03:10:12.655Z,100606.49
2018-11-11T03:12:42.309Z,100607.14
2018-11-11T03:15:13.143Z,100611.45
2018-11-11T03:17:41.944Z,100603.50
2018-11-11T03:20:11.748Z,100597.34
2018-11-11T03:22:40.677Z,100603.32
2018-11-11T03:25:10.969Z,100614.80
2018-11-11T03:27:40.120Z,100620.94
2018-11-11T03:30:10.826Z,100620.75
2018-11-11T03:32:40.050Z,100625.56
2018-11-11T03:35:10.714Z,100618.44
2018-11-11T03:37:39.671Z,100624.58
2018-11-11T03:40:10.972Z,100619.44
2018-11-11T03:42:39.924Z,100622.42
2018-11-11T03:45:11.081Z,100620.27
2018-11-11T03:47:40.005Z,100617.11
2018-11-11T03:50:10.021Z,100619.42
2018-11-11T03:52:39.445Z,100606.14
2018-11-11T03:55:08.774Z,100602.48
2018-11-11T03:57:38.471Z,100604.64
2018-11-11T04:00:09.580Z,100613.79
2018-11-11T04:02:38.502Z,100625.55
2018-11-11T04:05:08.344Z,100629.23
2018-11-11T04:07:37.273Z,100622.61
2018-11-11T04:10:08.364Z,100632.06
2018-11-11T04:12:37.523Z,100643.17
2018-11-11T04:15:07.221Z,100648.15
2018-11-11T04:17:36.411Z,100637.20
2018-11-11T04:20:05.764Z,100641.35
2018-11-11T04:22:34.554Z,100647.13
2018-11-11T04:25:03.396Z,100648.83
2018-11-11T04:27:32.408Z,100653.28
2018-11-11T04:30:01.547Z,100646.82
2018-11-11T04:32:30.440Z,100651.31
2018-11-11T04:34:59.380Z,100649.30
2018-11-11T04:37:28.259Z,100645.16
2018-11-11T04:39:57.789Z,100648.64
2018-11-11T04:42:26.744Z,100652.66
2018-11-11T04:44:55.565Z,100645.00
2018-11-11T04:47:24.738Z,100646.00
2018-11-11T04:49:53.835Z,100648.97
2018-11-11T04:52:22.611Z,100644.64
2018-11-11T04:54:51.566Z,100638.16
2018-11-11T04:57:21.063Z,100638.67
2018-11-11T04:59:49.912Z,100640.00
2018-11-11T05:02:19.130Z,100641.33
2018-11-11T05:04:49.173Z,100635.69
2018-11-11T05:07:18.013Z,100637.34
2018-11-11T05:09:46.893Z,100637.32
2018-11-11T05:12:16.234Z,100630.03
2018-11-11T05:14:45.255Z,100637.66
2018-11-11T05:17:14.463Z,100634.35
2018-11-11T05:19:43.343Z,100638.00
2018-11-11T05:22:12.186Z,100647.98
2018-11-11T05:24:41.117Z,100654.61
2018-11-11T05:27:10.336Z,100657.43
2018-11-11T05:29:39.226Z,100656.45
2018-11-11T05:32:08.145Z,100662.90
2018-11-11T05:34:37.194Z,100660.09
2018-11-11T05:37:06.787Z,100665.09
2018-11-11T05:39:35.918Z,100667.90
2018-11-11T05:42:05.638Z,100666.56
2018-11-11T05:44:34.818Z,100663.60
2018-11-11T05:47:03.727Z,100666.07
2018-11-11T05:49:32.629Z,100663.59
2018-11-11T05:52:01.438Z,100669.06
2018-11-11T05:54:30.268Z,100668.91
2018-11-11T05:56:59.078Z,100665.27
2018-11-11T05:59:27.811Z,100669.59
2018-11-11T06:01:56.580Z,100672.90
2018-11-11T06:04:25.476Z,100671.56
2018-11-11T06:06:54.637Z,100671.91
2018-11-11T06:09:23.449Z,100674.22
2018-11-11T06:11:52.217Z,100669.59
2018-11-11T06:14:21.003Z,100667.09
2018-11-11T06:16:49.873Z,100666.25
2018-11-11T06:19:18.734Z,100664.09
2018-11-11T06:21:48.345Z,100668.23
2018-11-11T06:24:17.178Z,100659.43
2018-11-11T06:26:46.114Z,100665.60
2018-11-11T06:29:15.045Z,100668.26
2018-11-11T06:31:44.587Z,100667.60
2018-11-11T06:34:13.502Z,100678.23
2018-11-11T06:36:42.270Z,100674.90
2018-11-11T06:39:12.133Z,100672.73
2018-11-11T06:41:41.110Z,100674.58
2018-11-11T06:44:10.168Z,100681.20
2018-11-11T06:46:39.095Z,100677.89
2018-11-11T06:49:07.968Z,100665.75
2018-11-11T06:51:36.929Z,100662.77
2018-11-11T06:54:05.933Z,100661.92
2018-11-11T06:56:34.774Z,100664.59
2018-11-11T06:59:03.699Z,100655.62
2018-11-11T07:01:32.888Z,100653.30
2018-11-11T07:04:02.932Z,100653.30
2018-11-11T07:06:32.465Z,100652.33
2018-11-11T07:09:01.268Z,100657.31
2018-11-11T07:11:30.164Z,100651.63
2018-11-11T07:13:59.647Z,100639.37
2018-11-11T07:16:28.542Z,100641.35
2018-11-11T07:18:57.571Z,100643.15
2018-11-11T07:21:26.877Z,100639.69
2018-11-11T07:23:55.838Z,100634.88
2018-11-11T07:26:24.773Z,100642.97
2018-11-11T07:28:53.630Z,100639.17
2018-11-11T07:31:22.556Z,100640.69
2018-11-11T07:33:51.695Z,100628.88
2018-11-11T07:36:20.592Z,100635.88
2018-11-11T07:38:49.407Z,100636.34
2018-11-11T07:41:18.181Z,100634.03
2018-11-11T07:43:47.067Z,100623.08
2018-11-11T07:46:15.965Z,100625.05
2018-11-11T07:48:44.949Z,100637.01
2018-11-11T07:51:14.178Z,100629.38
2018-11-11T07:53:43.271Z,100660.94
2018-11-11T07:56:12.581Z,100665.92
2018-11-11T07:58:41.593Z,100654.30
2018-11-11T08:01:10.648Z,100663.78
2018-11-11T08:03:39.593Z,100672.06
2018-11-11T08:06:10.117Z,100671.56
2018-11-11T08:08:39.781Z,100675.07
2018-11-11T08:11:20.246Z,100661.63
2018-11-11T08:13:49.133Z,100659.98
2018-11-11T08:16:18.056Z,100654.31
2018-11-11T08:18:46.980Z,100654.84
2018-11-11T08:21:15.840Z,100655.80
2018-11-11T08:23:44.736Z,100659.66
2018-11-11T08:26:13.726Z,100659.66
2018-11-11T08:28:42.707Z,100653.66
2018-11-11T08:31:11.912Z,100657.34
2018-11-11T08:33:40.834Z,100659.31
2018-11-11T08:36:09.991Z,100669.47
2018-11-11T08:38:38.793Z,100679.92
2018-11-11T08:41:07.631Z,100669.31
2018-11-11T08:43:36.587Z,100678.63
2018-11-11T08:46:05.566Z,100682.63
2018-11-11T08:48:34.728Z,100689.62
2018-11-11T08:51:03.957Z,100697.91
2018-11-11T08:53:32.965Z,100693.09
2018-11-11T08:56:01.994Z,100699.59
2018-11-11T08:58:30.936Z,100695.27
2018-11-11T09:00:59.970Z,100701.41
2018-11-11T09:03:29.112Z,100699.43
2018-11-11T09:05:57.954Z,100697.92
2018-11-11T09:08:26.779Z,100704.41
2018-11-11T09:10:55.594Z,100703.25
2018-11-11T09:13:24.606Z,100710.38
2018-11-11T09:15:53.618Z,100714.20
2018-11-11T09:18:22.588Z,100716.21
2018-11-11T09:20:51.881Z,100723.18
2018-11-11T09:23:20.751Z,100727.83
2018-11-11T09:25:49.712Z,100726.20
2018-11-11T09:28:18.699Z,100714.53
2018-11-11T09:30:47.606Z,100719.20
2018-11-11T09:33:16.436Z,100710.23
2018-11-11T09:35:45.345Z,100729.83
2018-11-11T09:38:14.808Z,100729.00
2018-11-11T09:40:43.656Z,100737.34
2018-11-11T09:43:12.862Z,100742.80
2018-11-11T09:45:42.043Z,100746.45
2018-11-11T09:48:11.050Z,100734.16
2018-11-11T09:50:40.041Z,100743.14
2018-11-11T09:53:09.243Z,100738.47
2018-11-11T09:55:38.170Z,100742.14
2018-11-11T09:58:07.053Z,100742.81
2018-11-11T10:00:35.878Z,100758.09
2018-11-11T10:03:15.307Z,100761.11
2018-11-11T10:05:52.935Z,100749.11
2018-11-11T10:08:27.950Z,100768.26
2018-11-11T10:11:02.699Z,100766.58
2018-11-11T10:13:37.254Z,100758.09
2018-11-11T10:16:10.183Z,100753.60
2018-11-11T10:18:43.605Z,100752.27
2018-11-11T10:21:18.726Z,100744.78
2018-11-11T10:24:03.849Z,100749.10
2018-11-11T10:26:41.042Z,100745.45
2018-11-11T10:29:18.132Z,100739.13
2018-11-11T10:31:52.236Z,100746.11
2018-11-11T10:34:25.658Z,100753.08
2018-11-11T10:36:57.514Z,100759.58
2018-11-11T10:39:31.733Z,100762.73
2018-11-11T10:42:04.796Z,100756.08
2018-11-11T10:44:54.759Z,100754.95
2018-11-11T10:47:29.566Z,100751.93
2018-11-11T10:50:00.713Z,100752.44
2018-11-11T10:52:29.567Z,100758.58
2018-11-11T10:54:58.843Z,100763.08
2018-11-11T10:57:27.740Z,100766.90
2018-11-11T10:59:56.788Z,100767.38
2018-11-11T11:02:30.924Z,100770.39
2018-11-11T11:05:05.211Z,100777.72
2018-11-11T11:07:34.291Z,100791.02
2018-11-11T11:10:03.295Z,100793.02
2018-11-11T11:12:32.341Z,100791.70
2018-11-11T11:15:01.453Z,100809.82
2018-11-11T11:17:30.514Z,100809.34
2018-11-11T11:20:00.488Z,100810.49
2018-11-11T11:22:29.373Z,100809.34
2018-11-11T11:24:58.704Z,100809.34
2018-11-11T11:27:27.776Z,100806.67
2018-11-11T11:29:56.657Z,100813.17
2018-11-11T11:32:26.278Z,100809.66
2018-11-11T11:34:55.149Z,100806.52
2018-11-11T11:37:24.183Z,100810.49
2018-11-11T11:39:53.197Z,100806.34
2018-11-11T11:42:22.065Z,100805.67
2018-11-11T11:44:51.219Z,100804.00
2018-11-11T11:47:20.255Z,100801.01
2018-11-11T11:49:49.193Z,100800.34
2018-11-11T11:52:18.080Z,100808.99
2018-11-11T11:54:47.063Z,100803.66
2018-11-11T11:57:15.979Z,100792.81
2018-11-11T11:59:45.133Z,100805.67
2018-11-11T12:02:14.060Z,100801.98
2018-11-11T12:04:43.068Z,100810.67
2018-11-11T12:07:11.997Z,100796.02
2018-11-11T12:09:41.098Z,100800.67
2018-11-11T12:12:09.983Z,100809.81
2018-11-11T12:14:39.042Z,100810.67
2018-11-11T12:17:08.026Z,100814.33
2018-11-11T12:19:37.125Z,100796.34
2018-11-11T12:22:06.455Z,100786.55
2018-11-11T12:24:35.362Z,100789.69
2018-11-11T12:27:04.279Z,100781.03
2018-11-11T12:29:33.232Z,100767.37
2018-11-11T12:32:02.183Z,100766.02
2018-11-11T12:34:31.015Z,100769.83
2018-11-11T12:37:00.007Z,100775.45
2018-11-11T12:39:29.100Z,100762.91
2018-11-11T12:41:58.067Z,100748.89
2018-11-11T12:44:27.202Z,100752.66
2018-11-11T12:46:56.173Z,100750.82
2018-11-11T12:49:25.279Z,100759.81
2018-11-11T12:51:54.689Z,100760.65
2018-11-11T12:54:24.108Z,100753.52
2018-11-11T12:56:52.981Z,100754.69
2018-11-11T12:59:21.768Z,100756.15
2018-11-11T13:01:50.668Z,100751.28
2018-11-11T13:04:19.842Z,100747.41
2018-11-11T13:06:48.696Z,100745.06
2018-11-11T13:09:17.535Z,100738.51
2018-11-11T13:11:46.358Z,100740.24
2018-11-11T13:14:15.223Z,100748.77
2018-11-11T13:16:44.199Z,100751.98
2018-11-11T13:19:13.310Z,100754.94
2018-11-11T13:21:42.273Z,100740.62
2018-11-11T13:24:11.675Z,100740.02
2018-11-11T13:26:40.807Z,100756.38
2018-11-11T13:29:09.646Z,100748.98
2018-11-11T13:31:38.582Z,100761.00
2018-11-11T13:34:08.273Z,100772.05
2018-11-11T13:36:37.201Z,100777.84
2018-11-11T13:39:11.189Z,100768.48
2018-11-11T13:41:40.180Z,100765.77
2018-11-11T13:44:09.658Z,100775.83
2018-11-11T13:46:39.191Z,100773.49
2018-11-11T13:49:08.302Z,100782.66
2018-11-11T13:51:38.254Z,100785.33
2018-11-11T13:54:07.536Z,100785.80
2018-11-11T13:56:36.396Z,100787.13
2018-11-11T13:59:05.364Z,100794.96
2018-11-11T14:01:34.524Z,100784.45
2018-11-11T14:04:03.694Z,100789.41
2018-11-11T14:06:32.587Z,100791.58
2018-11-11T14:09:04.567Z,100798.08
2018-11-11T14:11:33.855Z,100801.41
2018-11-11T14:14:02.718Z,100804.41
2018-11-11T14:16:31.517Z,100806.03
2018-11-11T14:19:00.730Z,100811.32
2018-11-11T14:21:29.397Z,100822.50
2018-11-11T14:23:58.609Z,100828.05
2018-11-11T14:26:27.677Z,100830.38
2018-11-11T14:28:57.322Z,100829.56
2018-11-11T14:31:26.620Z,100834.39
2018-11-11T14:33:55.493Z,100834.57
2018-11-11T14:36:24.518Z,100841.41
2018-11-11T14:38:53.567Z,100841.91
2018-11-11T14:41:22.510Z,100846.41
2018-11-11T14:43:51.414Z,100861.27
2018-11-11T14:46:20.464Z,100857.13
2018-11-11T14:48:49.721Z,100865.64
2018-11-11T14:51:18.622Z,100864.31
2018-11-11T14:53:47.586Z,100872.31
2018-11-11T14:56:22.723Z,100873.86
2018-11-11T14:58:52.094Z,100868.85
2018-11-11T15:01:20.949Z,100871.86
2018-11-11T15:03:50.001Z,100868.02
2018-11-11T15:06:18.957Z,100873.20
2018-11-11T15:08:47.757Z,100862.52
2018-11-11T15:11:16.746Z,100864.02
2018-11-11T15:13:45.961Z,100853.50
2018-11-11T15:16:14.781Z,100840.17
2018-11-11T15:18:43.899Z,100839.28
2018-11-11T15:21:12.903Z,100843.33
2018-11-11T15:23:41.889Z,100843.83
2018-11-11T15:26:10.942Z,100850.21
2018-11-11T15:28:39.774Z,100850.55
2018-11-11T15:31:08.691Z,100840.20
2018-11-11T15:33:44.018Z,100838.88
2018-11-11T15:36:19.501Z,100846.55
2018-11-11T15:38:48.645Z,100831.04
2018-11-11T15:41:17.537Z,100841.25
2018-11-11T15:43:46.664Z,100851.92
2018-11-11T15:46:15.627Z,100866.44
2018-11-11T15:48:44.901Z,100872.30
2018-11-11T15:51:13.876Z,100877.64
2018-11-11T15:53:43.983Z,100877.48
2018-11-11T15:56:13.184Z,100873.94
2018-11-11T15:58:42.191Z,100877.81
2018-11-11T16:01:11.094Z,100887.81
2018-11-11T16:03:40.354Z,100896.66
2018-11-11T16:06:09.641Z,100896.98
2018-11-11T16:08:40.653Z,100896.16
2018-11-11T16:11:09.492Z,100902.98
2018-11-11T16:13:38.566Z,100901.32
2018-11-11T16:16:07.828Z,100910.99
2018-11-11T16:18:36.724Z,100908.33
2018-11-11T16:21:05.894Z,100907.98
2018-11-11T16:23:34.793Z,100904.52
2018-11-11T16:26:03.894Z,100897.02
2018-11-11T16:28:33.192Z,100895.38
2018-11-11T16:31:02.447Z,100903.38
2018-11-11T16:33:31.370Z,100894.87
2018-11-11T16:36:00.262Z,100899.05
2018-11-11T16:38:29.169Z,100896.05
2018-11-11T16:40:58.117Z,100900.91
2018-11-11T16:43:26.974Z,100897.23
2018-11-11T16:46:02.331Z,100898.73
2018-11-11T16:48:31.554Z,100903.77
2018-11-11T16:51:00.478Z,100903.06
2018-11-11T16:53:29.331Z,100904.42
2018-11-11T16:55:58.229Z,100896.42
2018-11-11T16:58:27.230Z,100896.40
2018-11-11T17:00:56.354Z,100893.43
2018-11-11T17:03:25.183Z,100892.92
2018-11-11T17:05:54.399Z,100890.78
2018-11-11T17:08:23.343Z,100889.95
2018-11-11T17:10:52.310Z,100884.45
2018-11-11T17:13:21.158Z,100886.95
2018-11-11T17:15:50.023Z,100885.12
2018-11-11T17:18:19.160Z,100888.95
2018-11-11T17:20:48.449Z,100897.11
2018-11-11T17:23:17.660Z,100896.28
2018-11-11T17:25:46.615Z,100897.78
2018-11-11T17:28:16.606Z,100901.11
2018-11-11T17:30:46.072Z,100903.97
2018-11-11T17:33:15.330Z,100909.94
2018-11-11T17:35:44.717Z,100914.30
2018-11-11T17:38:13.586Z,100917.46
2018-11-11T17:40:42.518Z,100922.09
2018-11-11T17:43:11.409Z,100923.43
2018-11-11T17:45:40.226Z,100925.59
2018-11-11T17:48:08.991Z,100923.79
2018-11-11T17:50:37.881Z,100928.61
2018-11-11T17:53:07.626Z,100937.45
2018-11-11T17:55:37.637Z,100939.77
2018-11-11T17:58:06.498Z,100952.44
2018-11-11T18:00:35.769Z,100964.30
2018-11-11T18:03:04.952Z,100959.13
2018-11-11T18:05:33.967Z,100971.45
2018-11-11T18:08:02.926Z,100970.43
2018-11-11T18:10:32.156Z,100969.43
2018-11-11T18:13:01.264Z,100975.76
2018-11-11T18:15:31.486Z,100975.59
2018-11-11T18:18:00.431Z,100977.60
2018-11-11T18:20:30.528Z,100990.27
2018-11-11T18:23:00.428Z,100991.11
2018-11-11T18:25:29.396Z,100987.75
2018-11-11T18:27:58.815Z,100982.43
2018-11-11T18:30:29.579Z,100978.77
2018-11-11T18:32:58.480Z,100980.09
2018-11-11T18:35:27.585Z,100981.44
2018-11-11T18:37:56.603Z,100983.73
2018-11-11T18:40:27.975Z,100979.91
2018-11-11T18:42:57.117Z,100977.09
2018-11-11T18:45:27.320Z,100987.42
2018-11-11T18:47:56.251Z,100985.09
2018-11-11T18:50:30.532Z,100991.75
2018-11-11T18:52:59.426Z,100983.25
2018-11-11T18:55:28.542Z,100985.73
2018-11-11T18:57:57.544Z,100990.08
2018-11-11T19:00:28.646Z,100995.75
2018-11-11T19:02:58.080Z,100990.42
2018-11-11T19:05:27.345Z,100995.39
2018-11-11T19:07:57.091Z,100987.27
2018-11-11T19:10:33.242Z,100987.06
2018-11-11T19:13:03.688Z,100984.41
2018-11-11T19:15:32.545Z,100983.24
2018-11-11T19:18:01.602Z,100987.24
2018-11-11T19:20:30.858Z,100979.74
2018-11-11T19:22:59.642Z,100978.77
2018-11-11T19:25:29.695Z,100981.41
2018-11-11T19:27:59.854Z,100987.24
2018-11-11T19:30:29.551Z,100989.77
2018-11-11T19:32:58.501Z,100985.58
2018-11-11T19:35:27.603Z,100988.44
2018-11-11T19:37:57.528Z,100981.59
2018-11-11T19:40:27.696Z,100978.43
2018-11-11T19:42:57.677Z,100989.44
2018-11-11T19:45:28.341Z,100983.09
2018-11-11T19:47:58.328Z,100988.09
2018-11-11T19:50:29.040Z,100985.08
2018-11-11T19:52:58.794Z,100983.59
2018-11-11T19:55:27.983Z,100973.09
2018-11-11T19:57:57.388Z,100978.08
2018-11-11T20:00:28.566Z,100987.11
2018-11-11T20:02:58.285Z,100978.77
2018-11-11T20:05:27.279Z,100990.27
2018-11-11T20:07:57.633Z,100986.42
2018-11-11T20:10:27.243Z,100997.76
2018-11-11T20:12:56.149Z,101000.08
2018-11-11T20:15:26.926Z,101017.41
2018-11-11T20:17:55.849Z,101017.61
2018-11-11T20:20:26.174Z,101026.09
2018-11-11T20:22:55.212Z,101024.09
2018-11-11T20:25:24.115Z,101022.08
2018-11-11T20:27:53.081Z,101021.59
2018-11-11T20:30:29.620Z,101029.09
2018-11-11T20:32:58.615Z,101031.43
2018-11-11T20:35:28.923Z,101031.75
2018-11-11T20:37:57.932Z,101034.23
2018-11-11T20:40:27.819Z,101037.73
2018-11-11T20:42:57.382Z,101037.73
2018-11-11T20:45:29.523Z,101049.89
2018-11-11T20:47:58.678Z,101046.91
2018-11-11T20:50:28.681Z,101043.74
2018-11-11T20:52:59.211Z,101048.42
2018-11-11T20:55:28.331Z,101049.59
2018-11-11T20:57:57.459Z,101058.75
2018-11-11T21:00:28.999Z,101052.42
2018-11-11T21:02:58.472Z,101061.73
2018-11-11T21:05:28.338Z,101071.56
2018-11-11T21:07:58.186Z,101071.39
2018-11-11T21:10:28.404Z,101067.41
2018-11-11T21:12:58.840Z,101071.09
2018-11-11T21:15:34.559Z,101074.75
2018-11-11T21:18:04.903Z,101072.09
2018-11-11T21:20:35.020Z,101060.58
2018-11-11T21:23:04.978Z,101063.91
2018-11-11T21:25:35.340Z,101066.75
2018-11-11T21:28:04.646Z,101060.74
2018-11-11T21:30:34.684Z,101063.39
2018-11-11T21:33:05.259Z,101070.75
2018-11-11T21:35:34.747Z,101069.23
2018-11-11T21:38:03.726Z,101068.23
2018-11-11T21:40:33.113Z,101064.23
2018-11-11T21:43:02.141Z,101058.40
2018-11-11T21:45:32.217Z,101051.41
2018-11-11T21:48:02.098Z,101039.91
2018-11-11T21:50:31.816Z,101033.73
2018-11-11T21:53:37.229Z,101040.39
2018-11-11T21:56:07.312Z,101037.72
2018-11-11T21:58:37.413Z,101030.06
2018-11-11T22:01:07.205Z,101028.39
2018-11-11T22:03:37.751Z,101030.41
2018-11-11T22:06:07.037Z,101027.59
2018-11-11T22:08:36.209Z,101038.06
2018-11-11T22:11:05.130Z,101044.77
2018-11-11T22:13:34.169Z,101026.93
2018-11-11T22:16:03.851Z,101038.09
2018-11-11T22:18:32.698Z,101043.60
2018-11-11T22:21:01.696Z,101062.91
2018-11-11T22:23:30.890Z,101054.92
2018-11-11T22:26:00.048Z,101067.06
2018-11-11T22:28:28.889Z,101086.44
2018-11-11T22:30:58.819Z,101104.27
2018-11-11T22:33:27.789Z,101104.44
2018-11-11T22:35:56.696Z,101112.44
2018-11-11T22:38:26.344Z,101111.44
2018-11-11T22:40:55.178Z,101112.78
2018-11-11T22:43:23.962Z,101119.45
2018-11-11T22:45:52.867Z,101120.78
2018-11-11T22:48:21.841Z,101131.09
2018-11-11T22:50:50.792Z,101134.27
2018-11-11T22:53:20.019Z,101136.44
2018-11-11T22:55:49.074Z,101131.27
2018-11-11T22:58:18.006Z,101127.43
2018-11-11T23:00:51.960Z,101131.45
2018-11-11T23:03:20.866Z,101126.44
2018-11-11T23:05:49.728Z,101129.77
2018-11-11T23:08:18.850Z,101131.59
2018-11-11T23:10:47.589Z,101134.45
2018-11-11T23:13:16.438Z,101131.28
2018-11-11T23:15:45.505Z,101133.28
2018-11-11T23:18:14.335Z,101143.95
2018-11-11T23:20:43.130Z,101142.06
2018-11-11T23:23:12.424Z,101143.28
2018-11-11T23:25:41.278Z,101149.10
2018-11-11T23:28:10.160Z,101146.11
2018-11-11T23:30:38.960Z,101143.78
2018-11-11T23:33:07.762Z,101129.28
2018-11-11T23:35:36.579Z,101132.27
2018-11-11T23:38:05.604Z,101130.11
2018-11-11T23:40:34.423Z,101130.44
2018-11-11T23:43:03.566Z,101125.94
2018-11-11T23:45:32.340Z,101137.44
2018-11-11T23:48:01.268Z,101139.59
2018-11-11T23:50:30.418Z,101133.28
2018-11-11T23:52:59.253Z,101141.44
2018-11-11T23:55:28.108Z,101140.94
2018-11-11T23:57:56.929Z,101136.43
